PHWVO EHEH-EHRD
Flight info
| Callsign | PHWVO |
|---|---|
| Flight time | 0h 36m |
| Altitude | 4000 |
| Route | INKET |
| Aircraft | C172/L-SFG/C |
Departure
| Time | 2026-04-30 18:42 |
|---|---|
| Airport | Eindhoven Airport (EHEH) |
Arrival
| Time | 2026-04-30 19:18 |
|---|---|
| Airport | Rotterdam The Hague Airport (EHRD) |
| Time | Latitude | Longitude | Altitude | Speed | Heading |
|---|---|---|---|---|---|
| 2026-04-30 18:29 | 51.45777 | 5.37769 | 78 ft | 0 kts | 55° |
| 2026-04-30 18:34 | 51.45777 | 5.37770 | 78 ft | 2 kts | 63° |
| 2026-04-30 18:35 | 51.45751 | 5.37746 | 78 ft | 15 kts | 234° |
| 2026-04-30 18:35 | 51.45659 | 5.37541 | 78 ft | 22 kts | 236° |
| 2026-04-30 18:35 | 51.45599 | 5.37349 | 78 ft | 16 kts | 242° |
| 2026-04-30 18:36 | 51.45509 | 5.37074 | 78 ft | 18 kts | 237° |
| 2026-04-30 18:36 | 51.45398 | 5.36873 | 78 ft | 23 kts | 207° |
| 2026-04-30 18:36 | 51.45190 | 5.36834 | 78 ft | 21 kts | 170° |
| 2026-04-30 18:37 | 51.45016 | 5.36889 | 79 ft | 25 kts | 170° |
| 2026-04-30 18:37 | 51.44880 | 5.36933 | 78 ft | 15 kts | 168° |
| 2026-04-30 18:37 | 51.44808 | 5.36965 | 78 ft | 12 kts | 151° |
| 2026-04-30 18:37 | 51.44780 | 5.37001 | 78 ft | 0 kts | 132° |
| 2026-04-30 18:39 | 51.44779 | 5.37001 | 78 ft | 0 kts | 132° |
| 2026-04-30 18:39 | 51.44730 | 5.37084 | 78 ft | 13 kts | 119° |
| 2026-04-30 18:40 | 51.44745 | 5.37151 | 78 ft | 0 kts | 32° |
| 2026-04-30 18:40 | 51.44865 | 5.37285 | 79 ft | 49 kts | 37° |
| 2026-04-30 18:41 | 51.45235 | 5.37669 | 154 ft | 69 kts | 44° |
| 2026-04-30 18:41 | 51.45580 | 5.38040 | 336 ft | 68 kts | 39° |
| 2026-04-30 18:41 | 51.46036 | 5.38531 | 448 ft | 81 kts | 41° |
| 2026-04-30 18:41 | 51.46500 | 5.39041 | 631 ft | 82 kts | 44° |
| 2026-04-30 18:42 | 51.46940 | 5.39525 | 885 ft | 74 kts | 46° |
| 2026-04-30 18:42 | 51.47736 | 5.40392 | 1333 ft | 64 kts | 49° |
| 2026-04-30 18:42 | 51.48093 | 5.40775 | 1559 ft | 59 kts | 53° |
| 2026-04-30 18:45 | 51.52479 | 5.41351 | 2995 ft | 104 kts | 319° |
| 2026-04-30 18:45 | 51.52997 | 5.40497 | 3154 ft | 107 kts | 314° |
| 2026-04-30 18:45 | 51.53495 | 5.39611 | 3330 ft | 108 kts | 311° |
| 2026-04-30 18:46 | 51.53981 | 5.38705 | 3500 ft | 109 kts | 310° |
| 2026-04-30 18:46 | 51.54466 | 5.37775 | 3667 ft | 110 kts | 310° |
| 2026-04-30 18:46 | 51.54944 | 5.36848 | 3827 ft | 110 kts | 310° |
| 2026-04-30 18:46 | 51.55427 | 5.35901 | 4002 ft | 110 kts | 310° |
| 2026-04-30 18:47 | 51.55910 | 5.34950 | 4179 ft | 111 kts | 309° |
| 2026-04-30 18:47 | 51.56341 | 5.33912 | 4356 ft | 110 kts | 293° |
| 2026-04-30 18:47 | 51.56657 | 5.32805 | 4554 ft | 109 kts | 289° |
| 2026-04-30 18:47 | 51.56958 | 5.31688 | 4730 ft | 109 kts | 288° |
| 2026-04-30 18:48 | 51.57256 | 5.30577 | 4894 ft | 108 kts | 289° |
| 2026-04-30 18:48 | 51.57555 | 5.29466 | 5054 ft | 107 kts | 289° |
| 2026-04-30 18:48 | 51.57849 | 5.28381 | 5217 ft | 106 kts | 289° |
| 2026-04-30 18:48 | 51.58145 | 5.27287 | 5370 ft | 105 kts | 289° |
| 2026-04-30 18:49 | 51.58442 | 5.26192 | 5449 ft | 114 kts | 290° |
| 2026-04-30 18:49 | 51.58784 | 5.24946 | 5494 ft | 128 kts | 292° |
| 2026-04-30 18:49 | 51.59162 | 5.23586 | 5444 ft | 140 kts | 293° |
| 2026-04-30 18:49 | 51.59553 | 5.22191 | 5394 ft | 133 kts | 292° |
| 2026-04-30 18:50 | 51.59917 | 5.20869 | 5427 ft | 128 kts | 291° |
| 2026-04-30 18:50 | 51.60279 | 5.19541 | 5420 ft | 128 kts | 291° |
| 2026-04-30 18:50 | 51.60636 | 5.18220 | 5445 ft | 129 kts | 291° |
| 2026-04-30 18:50 | 51.60997 | 5.16889 | 5449 ft | 132 kts | 291° |
| 2026-04-30 18:51 | 51.61364 | 5.15537 | 5421 ft | 132 kts | 291° |
| 2026-04-30 18:51 | 51.61731 | 5.14184 | 5420 ft | 130 kts | 291° |
| 2026-04-30 18:51 | 51.62088 | 5.12860 | 5409 ft | 129 kts | 291° |
| 2026-04-30 18:51 | 51.62468 | 5.11560 | 5419 ft | 129 kts | 303° |
| 2026-04-30 18:52 | 51.63023 | 5.10430 | 5425 ft | 129 kts | 314° |
| 2026-04-30 18:52 | 51.63622 | 5.09359 | 5408 ft | 129 kts | 315° |
| 2026-04-30 18:52 | 51.64226 | 5.08286 | 5415 ft | 128 kts | 314° |
| 2026-04-30 18:52 | 51.64827 | 5.07215 | 5417 ft | 128 kts | 314° |
| 2026-04-30 18:53 | 51.65424 | 5.06147 | 5418 ft | 128 kts | 314° |
| 2026-04-30 18:53 | 51.66019 | 5.05081 | 5406 ft | 128 kts | 314° |
| 2026-04-30 18:53 | 51.66610 | 5.04019 | 5411 ft | 127 kts | 314° |
| 2026-04-30 18:53 | 51.67184 | 5.02987 | 5429 ft | 127 kts | 314° |
| 2026-04-30 18:54 | 51.67778 | 5.01920 | 5412 ft | 127 kts | 314° |
| 2026-04-30 18:54 | 51.68373 | 5.00849 | 5436 ft | 127 kts | 314° |
| 2026-04-30 18:54 | 51.68969 | 4.99780 | 5424 ft | 128 kts | 314° |
| 2026-04-30 18:54 | 51.69566 | 4.98707 | 5436 ft | 129 kts | 314° |
| 2026-04-30 18:55 | 51.70170 | 4.97621 | 5436 ft | 131 kts | 314° |
| 2026-04-30 18:55 | 51.71382 | 4.95438 | 5433 ft | 131 kts | 314° |
| 2026-04-30 18:55 | 51.71984 | 4.94352 | 5430 ft | 130 kts | 314° |
| 2026-04-30 18:56 | 51.73182 | 4.92191 | 5426 ft | 129 kts | 314° |
| 2026-04-30 18:56 | 51.73781 | 4.91109 | 5426 ft | 129 kts | 314° |
| 2026-04-30 18:56 | 51.74370 | 4.90046 | 5434 ft | 127 kts | 314° |
| 2026-04-30 18:57 | 51.75456 | 4.88108 | 5152 ft | 109 kts | 316° |
| 2026-04-30 18:57 | 51.75946 | 4.87231 | 4996 ft | 103 kts | 316° |
| 2026-04-30 18:57 | 51.76417 | 4.86386 | 4836 ft | 100 kts | 316° |
| 2026-04-30 18:58 | 51.77387 | 4.84648 | 4381 ft | 111 kts | 316° |
| 2026-04-30 18:58 | 51.77906 | 4.83713 | 4141 ft | 114 kts | 315° |
| 2026-04-30 18:58 | 51.78441 | 4.82745 | 3896 ft | 117 kts | 315° |
| 2026-04-30 18:59 | 51.79500 | 4.80829 | 3420 ft | 119 kts | 314° |
| 2026-04-30 19:00 | 51.80785 | 4.77783 | 3003 ft | 112 kts | 276° |
| 2026-04-30 19:00 | 51.80930 | 4.76515 | 2998 ft | 118 kts | 272° |
| 2026-04-30 19:00 | 51.81202 | 4.73923 | 2996 ft | 123 kts | 273° |
| 2026-04-30 19:01 | 51.81419 | 4.71195 | 2999 ft | 123 kts | 269° |
| 2026-04-30 19:01 | 51.81518 | 4.69833 | 3002 ft | 123 kts | 269° |
| 2026-04-30 19:02 | 51.81722 | 4.67081 | 2997 ft | 124 kts | 269° |
| 2026-04-30 19:02 | 51.81906 | 4.64298 | 2993 ft | 124 kts | 266° |
| 2026-04-30 19:03 | 51.82041 | 4.61513 | 2995 ft | 124 kts | 266° |
| 2026-04-30 19:03 | 51.82179 | 4.58751 | 2992 ft | 124 kts | 266° |
| 2026-04-30 19:04 | 51.82320 | 4.55966 | 2991 ft | 124 kts | 266° |
| 2026-04-30 19:04 | 51.82452 | 4.53185 | 2987 ft | 124 kts | 265° |
| 2026-04-30 19:05 | 51.82567 | 4.50402 | 2987 ft | 124 kts | 266° |
| 2026-04-30 19:05 | 51.82686 | 4.47609 | 2987 ft | 124 kts | 266° |
| 2026-04-30 19:06 | 51.82810 | 4.44836 | 2987 ft | 124 kts | 265° |
| 2026-04-30 19:06 | 51.82874 | 4.43435 | 2985 ft | 125 kts | 265° |
| 2026-04-30 19:06 | 51.83000 | 4.40668 | 2980 ft | 125 kts | 265° |
| 2026-04-30 19:07 | 51.83132 | 4.37913 | 2980 ft | 125 kts | 266° |
| 2026-04-30 19:07 | 51.83200 | 4.36519 | 2985 ft | 125 kts | 266° |
| 2026-04-30 19:08 | 51.83326 | 4.33581 | 2757 ft | 139 kts | 265° |
| 2026-04-30 19:08 | 51.83436 | 4.30496 | 2328 ft | 129 kts | 266° |
| 2026-04-30 19:08 | 51.83490 | 4.29102 | 2113 ft | 118 kts | 266° |
| 2026-04-30 19:09 | 51.83616 | 4.26861 | 2036 ft | 93 kts | 263° |
| 2026-04-30 19:09 | 51.83687 | 4.25720 | 2052 ft | 110 kts | 265° |
| 2026-04-30 19:09 | 51.83773 | 4.24412 | 2042 ft | 125 kts | 277° |
| 2026-04-30 19:10 | 51.84945 | 4.22664 | 2035 ft | 109 kts | 6° |
| 2026-04-30 19:10 | 51.86288 | 4.23032 | 2040 ft | 99 kts | 30° |
| 2026-04-30 19:11 | 51.86933 | 4.23287 | 2041 ft | 98 kts | 31° |
| 2026-04-30 19:11 | 51.88031 | 4.24229 | 2036 ft | 87 kts | 57° |
| 2026-04-30 19:11 | 51.88462 | 4.24907 | 2034 ft | 83 kts | 64° |
| 2026-04-30 19:12 | 51.88825 | 4.25607 | 2034 ft | 82 kts | 68° |
| 2026-04-30 19:12 | 51.89159 | 4.26334 | 2030 ft | 82 kts | 70° |
| 2026-04-30 19:12 | 51.89473 | 4.27081 | 2031 ft | 83 kts | 73° |
| 2026-04-30 19:13 | 51.90073 | 4.28605 | 2034 ft | 82 kts | 73° |
| 2026-04-30 19:13 | 51.90639 | 4.30162 | 1990 ft | 84 kts | 79° |
| 2026-04-30 19:13 | 51.90838 | 4.31069 | 1872 ft | 88 kts | 83° |
| 2026-04-30 19:14 | 51.91048 | 4.32012 | 1772 ft | 92 kts | 79° |
| 2026-04-30 19:14 | 51.91316 | 4.32976 | 1650 ft | 96 kts | 75° |
| 2026-04-30 19:14 | 51.91658 | 4.33909 | 1528 ft | 100 kts | 71° |
| 2026-04-30 19:14 | 51.91999 | 4.34827 | 1346 ft | 101 kts | 69° |
| 2026-04-30 19:15 | 51.92372 | 4.35759 | 1192 ft | 96 kts | 68° |
| 2026-04-30 19:15 | 51.93056 | 4.37420 | 934 ft | 93 kts | 68° |
| 2026-04-30 19:15 | 51.93374 | 4.38257 | 786 ft | 90 kts | 66° |
| 2026-04-30 19:16 | 51.93697 | 4.39025 | 628 ft | 82 kts | 64° |
| 2026-04-30 19:16 | 51.93968 | 4.39720 | 511 ft | 68 kts | 67° |
| 2026-04-30 19:16 | 51.94406 | 4.40798 | 365 ft | 52 kts | 65° |
| 2026-04-30 19:17 | 51.94598 | 4.41277 | 288 ft | 54 kts | 65° |
| 2026-04-30 19:17 | 51.95017 | 4.42332 | 147 ft | 59 kts | 63° |
| 2026-04-30 19:17 | 51.95228 | 4.42870 | 35 ft | 56 kts | 63° |
| 2026-04-30 19:18 | 51.95491 | 4.43529 | -9 ft | 24 kts | 51° |
| 2026-04-30 19:18 | 51.95445 | 4.43573 | -10 ft | 16 kts | 215° |
| 2026-04-30 19:18 | 51.95341 | 4.43447 | -11 ft | 21 kts | 212° |
| 2026-04-30 19:19 | 51.95233 | 4.43378 | -9 ft | 13 kts | 233° |
| 2026-04-30 19:19 | 51.95172 | 4.43225 | -8 ft | 18 kts | 237° |
| 2026-04-30 19:19 | 51.95067 | 4.42911 | -12 ft | 3 kts | 298° |
| 2026-04-30 19:20 | 51.95064 | 4.42902 | -12 ft | 0 kts | 147° |